Albolote, Spain
Current Conditions -  °F | °C
As of 12:30 AM on Tuesday 23 Dec 2014 (Local Time) from LEGR Reporting Station
Few Clouds Few Clouds  
Wind Chill:   Ceiling: Unl
Heat Index:   Visibility: 4mi
Dew Point:   Wind: 3mph
Humidity: 93%   Direction: 220°SW
Pressure: 30.42"   Gusts: NA
Location:  37.23°N, 3.66°W
Report Text: LEGR 222330Z 22003KT 160V270 7000 FEW003 04/03 Q1030
Loading
Personal Weather Stations






























Interactive Weather Map New forecast layout! Learn more

10-Day Weather Forecast

Advertisements
Track Severe Weather on mobile